Etusivu
METAR-TAF:

METAR-TAF

Lentoasemat :

Ishigaki, Japani

Leveyspiiri: 24-20N, Pituuspiiri: 124-10E, korkeus merenpinnasta: 6 m

Tämänhetkinen sää

Tämä raportti tehtiin 45 minuuttia sitten, kello 06.00 UTC
Tuuli 16 kn etelästä/lounaasta
Lämpötila 32°C
Kosteus 84%
Ilmanpaine 1007 hPa
Näkyvyys 10 km tai enemmän
Muutamia pilviä 900 ft:n korkeudessa
Hajonneita pilviä 1200 ft:n korkeudessa

METAR: ROIG 160600Z 21016KT 9999 FEW009 BKN012 32/29 Q1007

Aika: 15:45 (06:45 UTC)

Sääennuste

Tämä raportti tehtiin 1 tunti ja 37 minuuttia sitten, kello 05.08 UTC
Ennuste voimassa 16. päivästä klo 06 UTC - 17. päivään klo 12 UTC
Tuuli 8 kn etelästä/lounaasta
Näkyvyys 10 km tai enemmän
Muutamia pilviä 800 ft:n korkeudessa
Hajonneita pilviä 1500 ft:n korkeudessa
Ajoittain
16. päivästä klo 12 UTC - 17. päivään klo 00 UTC
Muutamia pilviä 600 ft:n korkeudessa
Hajonneita pilviä 800 ft:n korkeudessa

TAF: ROIG 160508Z 1606/1712 20008KT 9999 FEW008 BKN015 TEMPO 1612/1700 FEW006 BKN008

Säähavainnot ja -ennusteet yli 4000 lentoasemalta (METAR- ja TAF-raportit).

Käytössä olevat sääasemat on merkitty karttaan keltaisilla ja punaisilla pisteillä.

Aseta hiiri pisteen päälle nähdäksesi sääaseman nimen.

Klikkaa sitten nähdäksesi säähavainnot ja -ennusteet.

Kartan vaihtaminen: klikkaa mustalla rastilla varustettuja vihreitä pisteitä, niin voit zoomata sisään; viivalla varustettua vihreää pistettä, niin voit zoomata ulos tai vihreitä nuolia, niin pääset viereisille kartoille.


METAR-TAF: